Time;durP1;ratioP1;P1;durP2;ratioP2;P2;SDS_P1;SDS_P2;PMS_P1;PMS_P2;Temp;Humidity;BMP_temperature;BMP_pressure;BME280_temperature;BME280_humidity;BME280_pressure;Samples;Min_cycle;Max_cycle;Signal;HPM_P1;HPM_P2
2024/01/31 00:01:25;;;;;;;14.13;4.70;;;;;;;-141.50;100.00;63355.56;5109429;28;20043;-81
2024/01/31 00:03:51;;;;;;;14.98;5.28;;;;;;;-141.50;100.00;63355.56;5114070;28;20059;-82
2024/01/31 00:06:18;;;;;;;12.77;5.15;;;;;;;-141.50;100.00;63355.56;5091601;28;20139;-80
2024/01/31 00:08:45;;;;;;;12.15;4.93;;;;;;;-141.50;100.00;63355.56;5110068;28;20063;-80
2024/01/31 00:11:12;;;;;;;10.10;4.93;;;;;;;-141.50;100.00;63355.56;5075035;28;20078;-79
2024/01/31 00:13:39;;;;;;;13.10;5.63;;;;;;;-141.50;100.00;63355.56;5093994;28;20058;-78
2024/01/31 00:16:06;;;;;;;8.93;5.07;;;;;;;-141.50;100.00;63355.56;5100767;28;20117;-79
2024/01/31 00:18:34;;;;;;;13.82;5.63;;;;;;;-141.50;100.00;63355.56;5116258;28;20040;-78
2024/01/31 00:21:01;;;;;;;9.80;4.68;;;;;;;-141.50;100.00;63355.56;5124051;28;20060;-80
2024/01/31 00:23:28;;;;;;;15.10;4.95;;;;;;;-141.50;100.00;63355.56;5122309;28;20044;-79
2024/01/31 00:25:54;;;;;;;14.15;5.00;;;;;;;-141.50;100.00;63355.56;5119991;28;20086;-80
2024/01/31 00:28:21;;;;;;;14.13;5.15;;;;;;;-141.50;100.00;63355.56;5116997;28;20063;-80
2024/01/31 00:30:48;;;;;;;10.68;4.47;;;;;;;-141.50;100.00;63355.56;5078450;28;20082;-79
2024/01/31 00:33:15;;;;;;;10.25;4.70;;;;;;;-141.50;100.00;63355.56;5105580;28;20051;-79
2024/01/31 00:35:42;;;;;;;13.38;5.30;;;;;;;-141.50;100.00;63355.56;5123306;28;20058;-78
2024/01/31 00:38:09;;;;;;;12.10;4.80;;;;;;;-141.50;100.00;63355.56;5102006;28;20109;-79
2024/01/31 00:40:35;;;;;;;16.75;5.30;;;;;;;-141.50;100.00;63355.56;5082643;28;20051;-79
2024/01/31 00:43:02;;;;;;;18.05;6.18;;;;;;;-141.50;100.00;63355.56;5102757;28;20051;-80
2024/01/31 00:45:30;;;;;;;12.57;5.32;;;;;;;-141.50;100.00;63355.56;5077377;28;20042;-80
2024/01/31 00:47:56;;;;;;;12.93;5.18;;;;;;;-141.50;100.00;63355.56;5110186;28;20059;-80
2024/01/31 00:50:23;;;;;;;13.02;5.80;;;;;;;-141.50;100.00;63355.56;5110220;28;20086;-79
2024/01/31 00:52:50;;;;;;;19.23;5.72;;;;;;;-141.50;100.00;63355.56;5094949;28;20406;-80
2024/01/31 00:55:16;;;;;;;16.45;6.05;;;;;;;-141.50;100.00;63355.56;5121501;28;20048;-80
2024/01/31 00:57:44;;;;;;;13.57;6.00;;;;;;;-141.50;100.00;63355.56;5111230;28;20040;-81
2024/01/31 01:00:11;;;;;;;13.35;5.88;;;;;;;-141.50;100.00;63355.56;5113045;28;20056;-80
2024/01/31 01:02:41;;;;;;;12.07;5.43;;;;;;;-141.50;100.00;63355.56;5109908;28;20048;-81
2024/01/31 01:05:10;;;;;;;14.77;5.80;;;;;;;-141.50;100.00;63355.56;5090039;28;20066;-80
2024/01/31 01:07:39;;;;;;;13.55;6.18;;;;;;;-141.50;100.00;63355.56;5093917;28;20039;-79
2024/01/31 01:10:11;;;;;;;12.05;5.88;;;;;;;-141.50;100.00;63355.56;5093069;28;20075;-82
2024/01/31 01:12:38;;;;;;;14.38;6.00;;;;;;;-141.50;100.00;63355.56;5108558;28;20067;-80
2024/01/31 01:15:06;;;;;;;14.18;6.22;;;;;;;-141.50;100.00;63355.56;5092264;28;20055;-79
2024/01/31 01:17:42;;;;;;;13.50;6.20;;;;;;;-141.50;100.00;63355.56;5115847;28;20070;-80
2024/01/31 01:20:09;;;;;;;13.98;6.80;;;;;;;-141.50;100.00;63355.56;5099545;28;20150;-80
2024/01/31 01:22:36;;;;;;;13.35;6.28;;;;;;;-141.50;100.00;63355.56;5091478;28;20063;-80
2024/01/31 01:25:03;;;;;;;13.30;6.57;;;;;;;-141.50;100.00;63355.56;5108951;28;20075;-81
2024/01/31 01:27:30;;;;;;;15.07;6.00;;;;;;;-141.50;100.00;63355.56;5110561;28;20048;-79
2024/01/31 01:29:57;;;;;;;17.35;7.07;;;;;;;-141.50;100.00;63355.56;5090107;28;20138;-79
2024/01/31 01:32:24;;;;;;;14.35;6.78;;;;;;;-141.50;100.00;63355.56;5090566;28;20478;-80
2024/01/31 01:34:50;;;;;;;15.57;6.43;;;;;;;-141.50;100.00;63355.56;5087279;28;20084;-80
2024/01/31 01:37:18;;;;;;;13.32;6.45;;;;;;;-141.50;100.00;63355.56;5109041;28;20044;-80
2024/01/31 01:39:45;;;;;;;15.07;6.88;;;;;;;-141.50;100.00;63355.56;5075673;28;20044;-78
2024/01/31 01:42:12;;;;;;;16.77;7.82;;;;;;;-141.50;100.00;63355.56;5109545;28;20048;-80
2024/01/31 01:44:46;;;;;;;18.33;7.25;;;;;;;-141.50;100.00;63355.56;5106801;28;20096;-80
2024/01/31 01:47:15;;;;;;;16.95;7.07;;;;;;;-141.50;100.00;63355.56;5107800;28;20056;-81
2024/01/31 01:49:42;;;;;;;14.98;7.32;;;;;;;-141.50;100.00;63355.56;5089489;28;20105;-79
2024/01/31 01:52:09;;;;;;;18.80;7.45;;;;;;;-141.50;100.00;63355.56;5088992;28;20071;-80
2024/01/31 01:54:37;;;;;;;21.35;7.78;;;;;;;-141.50;100.00;63355.56;5108311;28;20741;-80
2024/01/31 01:57:05;;;;;;;14.63;7.47;;;;;;;-141.50;100.00;63355.56;5103246;28;20056;-81
2024/01/31 01:59:33;;;;;;;21.65;7.78;;;;;;;-141.50;100.00;63355.56;5110295;28;20052;-81
2024/01/31 02:02:00;;;;;;;17.27;7.78;;;;;;;-141.50;100.00;63355.56;5092569;28;20048;-80
2024/01/31 02:04:29;;;;;;;17.85;7.55;;;;;;;-141.50;100.00;63355.56;5087021;28;20052;-80
2024/01/31 02:06:56;;;;;;;15.45;7.20;;;;;;;-141.50;100.00;63355.56;5091882;28;20060;-79
2024/01/31 02:09:23;;;;;;;17.40;7.82;;;;;;;-141.50;100.00;63355.56;5089329;28;20052;-79
2024/01/31 02:11:50;;;;;;;16.90;7.40;;;;;;;-141.50;100.00;63355.56;5077935;28;20044;-79
2024/01/31 02:14:18;;;;;;;16.60;7.70;;;;;;;-141.50;100.00;63355.56;5093654;28;20074;-80
2024/01/31 02:16:44;;;;;;;19.67;8.32;;;;;;;-141.50;100.00;63355.56;5107828;28;20052;-80
2024/01/31 02:19:13;;;;;;;20.98;8.45;;;;;;;-141.50;100.00;63355.56;5109846;28;20409;-80
2024/01/31 02:21:44;;;;;;;20.60;8.55;;;;;;;-141.50;100.00;63355.56;5109460;28;20501;-81
2024/01/31 02:24:11;;;;;;;19.35;8.50;;;;;;;-141.50;100.00;63355.56;5110598;28;20562;-79
2024/01/31 02:26:38;;;;;;;19.45;8.38;;;;;;;-141.50;100.00;63355.56;5112533;28;20203;-80
2024/01/31 02:29:05;;;;;;;20.88;9.57;;;;;;;-141.50;100.00;63355.56;5097131;28;20055;-80
2024/01/31 02:31:32;;;;;;;22.52;9.25;;;;;;;-141.50;100.00;63355.56;5110825;28;20047;-78
2024/01/31 02:33:58;;;;;;;18.38;8.23;;;;;;;-141.50;100.00;63355.56;5112108;28;20060;-78
2024/01/31 02:36:25;;;;;;;19.92;7.95;;;;;;;-141.50;100.00;63355.56;5094716;28;20052;-81
2024/01/31 02:38:52;;;;;;;21.67;9.55;;;;;;;-141.50;100.00;63355.56;5120007;28;20035;-79
2024/01/31 02:41:19;;;;;;;20.25;8.60;;;;;;;-141.50;100.00;63355.56;5111383;28;20081;-79
2024/01/31 02:43:45;;;;;;;22.15;8.68;;;;;;;-141.50;100.00;63355.56;5110138;28;20118;-79
2024/01/31 02:46:12;;;;;;;22.65;9.40;;;;;;;-141.50;100.00;63355.56;5109834;28;20055;-78
2024/01/31 02:48:39;;;;;;;21.98;8.25;;;;;;;-141.50;100.00;63355.56;5094744;28;20043;-80
2024/01/31 02:51:06;;;;;;;25.30;9.25;;;;;;;-141.50;100.00;63355.56;5113948;28;20059;-80
2024/01/31 02:53:32;;;;;;;18.55;8.90;;;;;;;-141.50;100.00;63355.56;5091455;28;20052;-79
2024/01/31 02:55:59;;;;;;;17.83;8.57;;;;;;;-141.50;100.00;63355.56;5114697;28;20086;-80
2024/01/31 02:58:26;;;;;;;20.73;9.05;;;;;;;-141.50;100.00;63355.56;5075111;28;20151;-79
2024/01/31 03:00:53;;;;;;;22.42;8.70;;;;;;;-141.50;100.00;63355.56;5111168;28;20058;-79
2024/01/31 03:03:19;;;;;;;20.52;8.60;;;;;;;-141.50;100.00;63355.56;5093262;28;20056;-81
2024/01/31 03:05:46;;;;;;;22.02;9.88;;;;;;;-141.50;100.00;63355.56;5104922;28;20048;-80
2024/01/31 03:08:13;;;;;;;20.25;8.25;;;;;;;-141.50;100.00;63355.56;5075651;28;20052;-79
2024/01/31 03:10:44;;;;;;;22.73;9.70;;;;;;;-141.50;100.00;63355.56;5089441;28;20566;-80
2024/01/31 03:13:11;;;;;;;19.73;8.93;;;;;;;-141.50;100.00;63355.56;5112193;28;20059;-79
2024/01/31 03:15:38;;;;;;;20.65;9.38;;;;;;;-141.50;100.00;63355.56;5091166;28;20058;-80
2024/01/31 03:18:05;;;;;;;17.70;8.23;;;;;;;-141.50;100.00;63355.56;5092108;28;20044;-79
2024/01/31 03:20:36;;;;;;;21.00;9.65;;;;;;;-141.50;100.00;63355.56;5106316;28;20108;-80
2024/01/31 03:23:02;;;;;;;19.85;8.45;;;;;;;-141.50;100.00;63355.56;5090369;28;20059;-81
2024/01/31 03:25:29;;;;;;;21.25;9.07;;;;;;;-141.50;100.00;63355.56;5076593;28;20071;-81
2024/01/31 03:27:56;;;;;;;25.25;9.02;;;;;;;-141.50;100.00;63355.56;5092675;28;20067;-80
2024/01/31 03:30:23;;;;;;;22.92;9.25;;;;;;;-141.50;100.00;63355.56;5109677;28;20242;-80
2024/01/31 03:32:49;;;;;;;17.80;8.68;;;;;;;-141.50;100.00;63355.56;5111957;28;20436;-80
2024/01/31 03:35:16;;;;;;;22.33;9.18;;;;;;;-141.50;100.00;63355.56;5116392;28;20051;-79
2024/01/31 03:37:44;;;;;;;25.88;9.50;;;;;;;-141.50;100.00;63355.56;5111188;28;20088;-79
2024/01/31 03:40:11;;;;;;;22.92;9.15;;;;;;;-141.50;100.00;63355.56;5110358;28;20066;-79
2024/01/31 03:42:37;;;;;;;23.70;9.57;;;;;;;-141.50;100.00;63355.56;5111010;28;20042;-80
2024/01/31 03:45:05;;;;;;;20.88;9.30;;;;;;;-141.50;100.00;63355.56;5111671;28;20061;-79
2024/01/31 03:47:35;;;;;;;20.73;9.52;;;;;;;-141.50;100.00;63355.56;5111642;28;20043;-78
2024/01/31 03:50:04;;;;;;;22.27;9.13;;;;;;;-141.50;100.00;63355.56;5087814;28;20059;-78
2024/01/31 03:52:31;;;;;;;21.55;9.60;;;;;;;-141.50;100.00;63355.56;5112287;28;20475;-78
2024/01/31 03:54:58;;;;;;;25.27;9.75;;;;;;;-141.50;100.00;63355.56;5092827;28;20089;-78
2024/01/31 03:57:24;;;;;;;23.70;10.00;;;;;;;-141.50;100.00;63355.56;5094145;28;20449;-78
2024/01/31 03:59:51;;;;;;;22.88;9.38;;;;;;;-141.50;100.00;63355.56;5093201;28;20460;-80
2024/01/31 04:02:18;;;;;;;19.85;9.43;;;;;;;-141.50;100.00;63355.56;5089627;28;20051;-79
2024/01/31 04:04:45;;;;;;;22.75;9.30;;;;;;;-141.50;100.00;63355.56;5093862;28;20122;-79
2024/01/31 04:07:11;;;;;;;20.33;9.50;;;;;;;-141.50;100.00;63355.56;5092863;28;20117;-78
2024/01/31 04:09:38;;;;;;;21.10;10.68;;;;;;;-141.50;100.00;63355.56;5097640;28;20059;-80
2024/01/31 04:12:06;;;;;;;23.58;10.13;;;;;;;-141.50;100.00;63355.56;5112984;28;20066;-79
2024/01/31 04:14:32;;;;;;;21.08;9.25;;;;;;;-141.50;100.00;63355.56;5103259;28;20054;-79
2024/01/31 04:16:59;;;;;;;25.20;9.23;;;;;;;-141.50;100.00;63355.56;5110750;28;20044;-79
2024/01/31 04:19:26;;;;;;;20.00;9.65;;;;;;;-141.50;100.00;63355.56;5111230;28;20051;-79
2024/01/31 04:21:53;;;;;;;23.35;9.48;;;;;;;-141.50;100.00;63355.56;5108637;28;20078;-78
2024/01/31 04:24:20;;;;;;;26.17;9.43;;;;;;;-141.50;100.00;63355.56;5126553;28;20048;-79
2024/01/31 04:26:47;;;;;;;22.83;11.15;;;;;;;-141.50;100.00;63355.56;5108450;28;20052;-78
2024/01/31 04:29:13;;;;;;;23.83;10.50;;;;;;;-141.50;100.00;63355.56;5094027;28;20048;-79
2024/01/31 04:31:40;;;;;;;20.27;9.32;;;;;;;-141.50;100.00;63355.56;5094317;28;20043;-80
2024/01/31 04:34:08;;;;;;;22.60;9.95;;;;;;;-141.50;100.00;63355.56;5118976;28;20051;-80
2024/01/31 04:36:35;;;;;;;22.50;9.93;;;;;;;-141.50;100.00;63355.56;5110564;28;20467;-79
2024/01/31 04:39:03;;;;;;;20.48;9.82;;;;;;;-141.50;100.00;63355.56;5109038;28;20150;-79
2024/01/31 04:41:29;;;;;;;19.48;9.57;;;;;;;-141.50;100.00;63355.56;5110946;28;20044;-79
2024/01/31 04:43:56;;;;;;;22.55;10.15;;;;;;;-141.50;100.00;63355.56;5109505;28;20071;-78
2024/01/31 04:46:23;;;;;;;22.50;9.80;;;;;;;-141.50;100.00;63355.56;5108920;28;20089;-79
2024/01/31 04:48:50;;;;;;;22.52;9.75;;;;;;;-141.50;100.00;63355.56;5094821;28;20304;-79
2024/01/31 04:51:17;;;;;;;19.80;9.85;;;;;;;-141.50;100.00;63355.56;5110969;28;20129;-80
2024/01/31 04:53:43;;;;;;;27.38;10.77;;;;;;;-141.50;100.00;63355.56;5116620;28;20054;-80
2024/01/31 04:56:10;;;;;;;27.15;10.55;;;;;;;-141.50;100.00;63355.56;5092651;28;20059;-80
2024/01/31 04:58:37;;;;;;;18.77;10.40;;;;;;;-141.50;100.00;63355.56;5071826;28;20080;-80
2024/01/31 05:01:05;;;;;;;28.80;11.30;;;;;;;-141.50;100.00;63355.56;5099588;28;20048;-80
2024/01/31 05:03:32;;;;;;;23.55;10.75;;;;;;;-141.50;100.00;63355.56;5093326;28;20055;-80
2024/01/31 05:05:59;;;;;;;21.10;10.77;;;;;;;-141.50;100.00;63355.56;5105100;28;20644;-80
2024/01/31 05:08:31;;;;;;;22.30;10.10;;;;;;;-141.50;100.00;63355.56;5116638;28;20457;-79
2024/01/31 05:10:57;;;;;;;24.23;10.68;;;;;;;-141.50;100.00;63355.56;5121671;28;20047;-78
2024/01/31 05:13:25;;;;;;;24.77;10.35;;;;;;;-141.50;100.00;63355.56;5111531;28;20059;-80
2024/01/31 05:15:52;;;;;;;29.85;10.90;;;;;;;-141.50;100.00;63355.56;5097328;28;20075;-79
2024/01/31 05:18:18;;;;;;;27.80;10.63;;;;;;;-141.50;100.00;63355.56;5114513;28;20244;-79
2024/01/31 05:20:45;;;;;;;23.73;10.43;;;;;;;-141.50;100.00;63355.56;5109440;28;20116;-80
2024/01/31 05:23:12;;;;;;;24.50;10.57;;;;;;;-141.50;100.00;63355.56;5111927;28;20056;-80
2024/01/31 05:25:39;;;;;;;23.65;10.43;;;;;;;-141.50;100.00;63355.56;5112225;28;20503;-80
2024/01/31 05:28:06;;;;;;;30.50;11.05;;;;;;;-141.50;100.00;63355.56;5093841;28;20047;-79
2024/01/31 05:30:33;;;;;;;25.67;10.82;;;;;;;-141.50;100.00;63355.56;5094128;28;20047;-80
2024/01/31 05:32:59;;;;;;;20.63;10.00;;;;;;;-141.50;100.00;63355.56;5080798;28;20048;-78
2024/01/31 05:35:26;;;;;;;24.30;11.38;;;;;;;-141.50;100.00;63355.56;5105736;28;20501;-79
2024/01/31 05:37:53;;;;;;;23.90;11.13;;;;;;;-141.50;100.00;63355.56;5072910;28;20046;-78
2024/01/31 05:40:20;;;;;;;26.25;11.30;;;;;;;-141.50;100.00;63355.56;5090596;28;20593;-78
2024/01/31 05:42:47;;;;;;;27.77;11.70;;;;;;;-141.50;100.00;63355.56;5110408;28;20119;-78
2024/01/31 05:45:18;;;;;;;21.75;10.38;;;;;;;-141.50;100.00;63355.56;5091865;28;20059;-79
2024/01/31 05:47:45;;;;;;;21.23;10.25;;;;;;;-141.50;100.00;63355.56;5108021;28;20089;-79
2024/01/31 05:50:13;;;;;;;24.42;10.23;;;;;;;-141.50;100.00;63355.56;5074562;28;20538;-79
2024/01/31 05:52:40;;;;;;;22.83;10.00;;;;;;;-141.50;100.00;63355.56;5112023;28;20044;-80
2024/01/31 05:55:06;;;;;;;23.45;10.93;;;;;;;-141.50;100.00;63355.56;5091716;28;20052;-79
2024/01/31 05:57:33;;;;;;;27.05;11.15;;;;;;;-141.50;100.00;63355.56;5111727;28;20044;-78
2024/01/31 06:00:00;;;;;;;20.75;10.50;;;;;;;-141.50;100.00;63355.56;5118010;28;20521;-78
2024/01/31 06:02:37;;;;;;;22.55;10.18;;;;;;;-141.50;100.00;63355.56;5116230;28;20132;-80
2024/01/31 06:05:04;;;;;;;24.38;10.95;;;;;;;-141.50;100.00;63355.56;5117720;28;20048;-79
2024/01/31 06:07:33;;;;;;;24.25;11.40;;;;;;;-141.50;100.00;63355.56;5118871;28;20040;-79
2024/01/31 06:10:00;;;;;;;19.08;10.00;;;;;;;-141.50;100.00;63355.56;5120341;28;20063;-79
2024/01/31 06:12:27;;;;;;;24.33;11.18;;;;;;;-141.50;100.00;63355.56;5126525;28;20043;-78
2024/01/31 06:14:54;;;;;;;26.20;10.77;;;;;;;-141.50;100.00;63355.56;5121334;28;20048;-79
2024/01/31 06:17:20;;;;;;;23.08;10.77;;;;;;;-141.50;100.00;63355.56;5117687;28;20110;-80
2024/01/31 06:19:48;;;;;;;21.75;9.77;;;;;;;-141.50;100.00;63355.56;5082154;28;20122;-79
2024/01/31 06:22:15;;;;;;;21.92;9.75;;;;;;;-141.50;100.00;63355.56;5109122;28;20131;-79
2024/01/31 06:24:41;;;;;;;25.48;10.70;;;;;;;-141.50;100.00;63355.56;5094199;28;20039;-78
2024/01/31 06:27:08;;;;;;;22.40;10.07;;;;;;;-141.50;100.00;63355.56;5111059;28;20358;-79
2024/01/31 06:29:38;;;;;;;20.50;9.95;;;;;;;-141.50;100.00;63355.56;5095847;28;20039;-78
2024/01/31 06:32:06;;;;;;;24.58;9.95;;;;;;;-141.50;100.00;63355.56;5114987;28;20036;-79
2024/01/31 06:34:33;;;;;;;24.48;10.77;;;;;;;-141.50;100.00;63355.56;5108078;28;20070;-79
2024/01/31 06:37:03;;;;;;;23.45;10.82;;;;;;;-141.50;100.00;63355.56;5075295;28;20047;-79
2024/01/31 06:39:29;;;;;;;21.80;10.18;;;;;;;-141.50;100.00;63355.56;5092649;28;20506;-78
2024/01/31 06:41:56;;;;;;;23.55;10.50;;;;;;;-141.50;100.00;63355.56;5092778;28;20096;-79
2024/01/31 06:44:23;;;;;;;23.30;10.68;;;;;;;-141.50;100.00;63355.56;5102326;28;20057;-80
2024/01/31 06:46:51;;;;;;;25.15;11.27;;;;;;;-141.50;100.00;63355.56;5092505;28;20052;-80
2024/01/31 06:49:18;;;;;;;27.63;10.95;;;;;;;-141.50;100.00;63355.56;5108088;28;20493;-81
2024/01/31 06:51:44;;;;;;;22.02;10.27;;;;;;;-141.50;100.00;63355.56;5109608;28;20066;-79
2024/01/31 06:54:14;;;;;;;23.77;10.55;;;;;;;-141.50;100.00;63355.56;5090263;28;20059;-80
2024/01/31 06:56:40;;;;;;;26.58;10.40;;;;;;;-141.50;100.00;63355.56;5088404;28;20048;-77
2024/01/31 06:59:08;;;;;;;24.08;10.32;;;;;;;-141.50;100.00;63355.56;5110332;28;20079;-80
2024/01/31 07:01:35;;;;;;;25.85;9.65;;;;;;;-141.50;100.00;63355.56;5094034;28;20043;-78
2024/01/31 07:04:02;;;;;;;23.38;9.85;;;;;;;-141.50;100.00;63355.56;5094459;28;20059;-81
2024/01/31 07:06:29;;;;;;;20.98;9.73;;;;;;;-141.50;100.00;63355.56;5093345;28;20058;-79
2024/01/31 07:08:56;;;;;;;22.88;9.80;;;;;;;-141.50;100.00;63355.56;5092259;28;20058;-79
2024/01/31 07:11:23;;;;;;;21.90;9.60;;;;;;;-141.50;100.00;63355.56;5092048;28;20521;-78
2024/01/31 07:13:49;;;;;;;20.85;9.95;;;;;;;-141.50;100.00;63355.56;5089191;28;20072;-80
2024/01/31 07:16:16;;;;;;;20.48;10.20;;;;;;;-141.50;100.00;63355.56;5087594;28;20051;-80
2024/01/31 07:18:43;;;;;;;23.23;10.95;;;;;;;-141.50;100.00;63355.56;5093524;28;20047;-79
2024/01/31 07:21:11;;;;;;;23.65;11.10;;;;;;;-141.50;100.00;63355.56;5112198;28;20048;-80
2024/01/31 07:23:41;;;;;;;22.25;10.63;;;;;;;-141.50;100.00;63355.56;5112929;28;20051;-80
2024/01/31 07:26:07;;;;;;;25.58;11.32;;;;;;;-141.50;100.00;63355.56;5111157;28;20067;-78
2024/01/31 07:28:36;;;;;;;26.90;11.18;;;;;;;-141.50;100.00;63355.56;5122502;28;20099;-78
2024/01/31 07:31:05;;;;;;;26.08;11.15;;;;;;;-141.50;100.00;63355.56;5114606;28;20052;-79
2024/01/31 07:33:34;;;;;;;25.25;10.32;;;;;;;-141.50;100.00;63355.56;5110970;28;20051;-79
2024/01/31 07:36:02;;;;;;;24.58;11.20;;;;;;;-141.50;100.00;63355.56;5092577;28;20047;-79
2024/01/31 07:38:29;;;;;;;27.15;11.73;;;;;;;-141.50;100.00;63355.56;5090239;28;20074;-80
2024/01/31 07:40:56;;;;;;;28.98;10.95;;;;;;;-141.50;100.00;63355.56;5110035;28;20292;-79
2024/01/31 07:43:23;;;;;;;24.15;10.75;;;;;;;-141.50;100.00;63355.56;5109037;28;20073;-79
2024/01/31 07:45:50;;;;;;;28.35;10.85;;;;;;;-141.50;100.00;63355.56;5112227;28;20043;-79
2024/01/31 07:48:17;;;;;;;26.75;10.52;;;;;;;-141.50;100.00;63355.56;5091379;28;20047;-78
2024/01/31 07:50:44;;;;;;;29.00;10.20;;;;;;;-141.50;100.00;63355.56;5112755;28;20043;-79
2024/01/31 07:53:10;;;;;;;22.10;10.00;;;;;;;-141.50;100.00;63355.56;5111797;28;20079;-79
2024/01/31 07:55:37;;;;;;;24.10;10.15;;;;;;;-141.50;100.00;63355.56;5111054;28;20047;-81
2024/01/31 07:58:04;;;;;;;21.08;9.85;;;;;;;-141.50;100.00;63355.56;5097233;28;20085;-80
2024/01/31 08:00:31;;;;;;;22.52;9.68;;;;;;;-141.50;100.00;63355.56;5112301;28;20320;-79
2024/01/31 08:02:58;;;;;;;25.38;10.48;;;;;;;-141.50;100.00;63355.56;5111923;28;20053;-80
2024/01/31 08:05:24;;;;;;;22.67;9.82;;;;;;;-141.50;100.00;63355.56;5113654;28;20063;-81
2024/01/31 08:07:51;;;;;;;25.02;10.23;;;;;;;-141.50;100.00;63355.56;5093939;28;20063;-77
2024/01/31 08:10:18;;;;;;;19.75;9.45;;;;;;;-141.50;100.00;63355.56;5107313;28;20217;-81
2024/01/31 08:12:46;;;;;;;22.92;9.50;;;;;;;-141.50;100.00;63355.56;5112489;28;20047;-81
2024/01/31 08:15:13;;;;;;;24.70;10.25;;;;;;;-141.50;100.00;63355.56;5079206;28;20054;-80
2024/01/31 08:17:40;;;;;;;25.17;9.80;;;;;;;-141.50;100.00;63355.56;5121469;28;20075;-77
2024/01/31 08:20:07;;;;;;;21.33;10.15;;;;;;;-141.50;100.00;63355.56;5104576;28;20058;-77
2024/01/31 08:22:35;;;;;;;24.10;9.70;;;;;;;-141.50;100.00;63355.56;5105980;28;20109;-79
2024/01/31 08:25:05;;;;;;;20.02;8.85;;;;;;;-141.50;100.00;63355.56;5118565;28;20052;-80
2024/01/31 08:27:32;;;;;;;20.08;9.02;;;;;;;-141.50;100.00;63355.56;5126025;28;20036;-79
2024/01/31 08:29:59;;;;;;;22.13;8.57;;;;;;;-141.50;100.00;63355.56;5122817;28;20343;-79
2024/01/31 08:32:28;;;;;;;20.35;8.02;;;;;;;-141.50;100.00;63355.56;5114864;28;20235;-80
2024/01/31 08:34:55;;;;;;;20.83;8.77;;;;;;;-141.50;100.00;63355.56;5091892;28;20209;-82
2024/01/31 08:37:22;;;;;;;22.98;8.90;;;;;;;-141.50;100.00;63355.56;5093632;28;20504;-81
2024/01/31 08:39:48;;;;;;;17.67;8.63;;;;;;;-141.50;100.00;63355.56;5090306;28;20043;-79
2024/01/31 08:42:15;;;;;;;22.63;8.13;;;;;;;-141.50;100.00;63355.56;5109728;28;20047;-81
2024/01/31 08:44:42;;;;;;;16.75;7.93;;;;;;;-141.50;100.00;63355.56;5089641;28;20098;-81
2024/01/31 08:47:09;;;;;;;23.23;8.77;;;;;;;-141.50;100.00;63355.56;5090045;28;20041;-82
2024/01/31 08:49:45;;;;;;;20.83;8.45;;;;;;;-141.50;100.00;63355.56;5109446;28;20089;-82
2024/01/31 08:52:13;;;;;;;20.27;8.40;;;;;;;-141.50;100.00;63355.56;5085431;28;20066;-80
2024/01/31 08:54:40;;;;;;;25.17;7.90;;;;;;;-141.50;100.00;63355.56;5088085;28;20190;-80
2024/01/31 08:57:07;;;;;;;19.83;8.20;;;;;;;-141.50;100.00;63355.56;5089738;28;20052;-81
2024/01/31 08:59:34;;;;;;;17.25;7.82;;;;;;;-141.50;100.00;63355.56;5110129;28;20088;-81
2024/01/31 09:02:00;;;;;;;19.40;8.02;;;;;;;-141.50;100.00;63355.56;5110934;28;20079;-81
2024/01/31 09:04:27;;;;;;;19.33;8.05;;;;;;;-141.50;100.00;63355.56;5092430;28;20077;-81
2024/01/31 09:06:54;;;;;;;15.73;8.00;;;;;;;-141.50;100.00;63355.56;5092532;28;20112;-80
2024/01/31 09:09:22;;;;;;;16.08;6.97;;;;;;;-141.50;100.00;63355.56;5086614;28;20059;-80
2024/01/31 09:11:48;;;;;;;16.25;8.30;;;;;;;-141.50;100.00;63355.56;5094185;28;20097;-81
2024/01/31 09:14:15;;;;;;;19.83;8.07;;;;;;;-141.50;100.00;63355.56;5111412;28;20073;-80
2024/01/31 09:16:42;;;;;;;15.27;7.32;;;;;;;-141.50;100.00;63355.56;5112293;28;20142;-79
2024/01/31 09:19:09;;;;;;;20.60;8.23;;;;;;;-141.50;100.00;63355.56;5092443;28;20059;-78
2024/01/31 09:21:36;;;;;;;16.98;7.53;;;;;;;-141.50;100.00;63355.56;5112332;28;20047;-80
2024/01/31 09:24:03;;;;;;;13.45;6.50;;;;;;;-141.50;100.00;63355.56;5113717;28;20131;-81
2024/01/31 09:26:29;;;;;;;16.30;7.47;;;;;;;-141.50;100.00;63355.56;5117863;28;20100;-79
2024/01/31 09:28:57;;;;;;;16.40;7.43;;;;;;;-141.50;100.00;63355.56;5106940;28;20051;-79
2024/01/31 09:31:25;;;;;;;16.60;7.68;;;;;;;-141.50;100.00;63355.56;5106934;28;20063;-81
2024/01/31 09:33:53;;;;;;;19.67;6.80;;;;;;;-141.50;100.00;63355.56;5087242;28;20056;-82
2024/01/31 09:36:21;;;;;;;17.92;7.35;;;;;;;-141.50;100.00;63355.56;5110106;28;20040;-81
2024/01/31 09:38:48;;;;;;;16.77;6.72;;;;;;;-141.50;100.00;63355.56;5093055;28;20140;-81
2024/01/31 09:41:16;;;;;;;19.92;8.00;;;;;;;-141.50;100.00;63355.56;5109890;28;20039;-81
2024/01/31 09:43:44;;;;;;;14.95;7.35;;;;;;;-141.50;100.00;63355.56;5088429;28;20059;-79
2024/01/31 09:46:12;;;;;;;20.40;7.10;;;;;;;-141.50;100.00;63355.56;5111214;28;20051;-79
2024/01/31 09:48:41;;;;;;;17.30;7.35;;;;;;;-141.50;100.00;63355.56;5093224;28;20055;-80
2024/01/31 09:51:08;;;;;;;15.73;7.40;;;;;;;-141.50;100.00;63355.56;5111799;28;20054;-79
2024/01/31 09:53:36;;;;;;;18.23;7.22;;;;;;;-141.50;100.00;63355.56;5110582;28;20418;-79
2024/01/31 09:56:05;;;;;;;16.85;7.63;;;;;;;-141.50;100.00;63355.56;5112400;28;20047;-80
2024/01/31 09:58:32;;;;;;;16.95;7.60;;;;;;;-141.50;100.00;63355.56;5092369;28;20419;-81
2024/01/31 10:01:03;;;;;;;14.05;6.35;;;;;;;-141.50;100.00;63355.56;5093700;28;20119;-81
2024/01/31 10:03:40;;;;;;;18.35;6.38;;;;;;;-141.50;100.00;63355.56;5098156;28;20136;-81
2024/01/31 10:06:07;;;;;;;14.30;5.07;;;;;;;-141.50;100.00;63355.56;5090582;28;20142;-80
2024/01/31 10:08:38;;;;;;;12.30;5.65;;;;;;;-141.50;100.00;63355.56;5112164;28;20554;-81
2024/01/31 10:11:06;;;;;;;12.43;6.10;;;;;;;-141.50;100.00;63355.56;5111520;28;20175;-80
2024/01/31 10:13:33;;;;;;;14.10;5.10;;;;;;;-141.50;100.00;63355.56;5073160;28;20602;-82
2024/01/31 10:15:59;;;;;;;12.07;5.15;;;;;;;-141.50;100.00;63355.56;5109316;28;20051;-82
2024/01/31 10:18:28;;;;;;;9.23;4.82;;;;;;;-141.50;100.00;63355.56;5110388;28;20081;-78
2024/01/31 10:20:57;;;;;;;11.07;5.10;;;;;;;-141.50;100.00;63355.56;5093400;28;20052;-82
2024/01/31 10:23:25;;;;;;;9.98;4.38;;;;;;;-141.50;100.00;63355.56;5114731;28;20047;-79
2024/01/31 10:25:52;;;;;;;11.93;5.07;;;;;;;-141.50;100.00;63355.56;5099880;28;20421;-79
2024/01/31 10:28:19;;;;;;;10.90;5.25;;;;;;;-141.50;100.00;63355.56;5092615;28;20550;-80
2024/01/31 10:30:50;;;;;;;14.10;5.68;;;;;;;-141.50;100.00;63355.56;5110616;28;20406;-79
2024/01/31 10:33:17;;;;;;;12.32;5.20;;;;;;;-141.50;100.00;63355.56;5089288;28;20044;-80
2024/01/31 10:35:45;;;;;;;13.00;4.93;;;;;;;-141.50;100.00;63355.56;5090537;28;20056;-79
2024/01/31 10:38:32;;;;;;;11.45;4.97;;;;;;;-141.50;100.00;63355.56;5075107;28;20047;-79
2024/01/31 10:41:02;;;;;;;10.93;4.70;;;;;;;-141.50;100.00;63355.56;5089762;28;20164;-78
2024/01/31 10:43:29;;;;;;;9.43;4.85;;;;;;;-141.50;100.00;63355.56;5083390;28;20078;-78
2024/01/31 10:45:56;;;;;;;14.07;4.50;;;;;;;-141.50;100.00;63355.56;5093947;28;20051;-78
2024/01/31 10:48:22;;;;;;;10.38;4.85;;;;;;;-141.50;100.00;63355.56;5105747;27;20138;-79
2024/01/31 10:50:53;;;;;;;14.50;5.22;;;;;;;-141.50;100.00;63355.56;5107962;28;20058;-79
2024/01/31 10:53:23;;;;;;;12.73;4.93;;;;;;;-141.50;100.00;63355.56;5089722;28;20109;-78
2024/01/31 10:55:53;;;;;;;11.25;5.20;;;;;;;-141.50;100.00;63355.56;5089025;28;20154;-79
2024/01/31 10:58:22;;;;;;;10.63;5.00;;;;;;;-141.50;100.00;63355.56;5086236;28;20100;-79
2024/01/31 11:00:49;;;;;;;9.15;4.15;;;;;;;-141.50;100.00;63355.56;5108774;28;20047;-80